Time;durP1;ratioP1;P1;durP2;ratioP2;P2;SDS_P1;SDS_P2;PMS_P1;PMS_P2;Temp;Humidity;BMP_temperature;BMP_pressure;BME280_temperature;BME280_humidity;BME280_pressure;Samples;Min_cycle;Max_cycle;Signal;HPM_P1;HPM_P2
2022/10/29 00:02:01;;;;;;;;;;;16.70;95.00;;;;;;5039184;28;19925;-74
2022/10/29 00:04:28;;;;;;;;;;;16.60;95.00;;;;;;5044572;28;19929;-75
2022/10/29 00:06:54;;;;;;;;;;;16.60;94.90;;;;;;5041239;28;19940;-74
2022/10/29 00:09:21;;;;;;;;;;;16.60;94.90;;;;;;5043565;28;19935;-74
2022/10/29 00:11:47;;;;;;;;;;;16.60;94.90;;;;;;5042094;28;20633;-74
2022/10/29 00:14:15;;;;;;;;;;;16.60;95.00;;;;;;5040550;28;19939;-74
2022/10/29 00:16:43;;;;;;;;;;;16.60;95.00;;;;;;5041734;28;19939;-75
2022/10/29 00:19:10;;;;;;;;;;;16.60;95.00;;;;;;5041583;28;19929;-74
2022/10/29 00:21:39;;;;;;;;;;;16.60;95.00;;;;;;5043351;28;19933;-75
2022/10/29 00:24:06;;;;;;;;;;;16.50;95.00;;;;;;5042415;28;20312;-75
2022/10/29 00:26:32;;;;;;;;;;;16.50;95.00;;;;;;5042062;28;19928;-75
2022/10/29 00:28:59;;;;;;;;;;;16.50;95.00;;;;;;5043371;28;20762;-74
2022/10/29 00:31:26;;;;;;;;;;;16.50;95.00;;;;;;5041901;28;20530;-74
2022/10/29 00:33:54;;;;;;;;;;;16.40;95.00;;;;;;5041722;28;20636;-75
2022/10/29 00:36:22;;;;;;;;;;;16.50;95.00;;;;;;5042153;28;19929;-75
2022/10/29 00:38:49;;;;;;;;;;;16.40;94.90;;;;;;5043370;28;19936;-75
2022/10/29 00:41:16;;;;;;;;;;;16.40;94.90;;;;;;5039371;28;20459;-75
2022/10/29 00:43:46;;;;;;;;;;;16.40;94.90;;;;;;5038893;28;20729;-74
2022/10/29 00:46:14;;;;;;;;;;;16.40;94.90;;;;;;5040777;28;19933;-74
2022/10/29 00:48:43;;;;;;;;;;;16.40;94.90;;;;;;5042114;28;19936;-74
2022/10/29 00:51:12;;;;;;;;;;;16.40;94.90;;;;;;5041538;28;19976;-75
2022/10/29 00:53:41;;;;;;;;;;;16.40;94.90;;;;;;5043711;28;19929;-75
2022/10/29 00:56:07;;;;;;;;;;;16.30;94.90;;;;;;5042748;28;20309;-75
2022/10/29 00:58:34;;;;;;;;;;;16.40;94.90;;;;;;5037910;28;19929;-75
2022/10/29 01:01:01;;;;;;;;;;;16.30;94.90;;;;;;5039217;28;19936;-75
2022/10/29 01:03:27;;;;;;;;;;;16.30;94.90;;;;;;5041255;28;19928;-74
2022/10/29 01:05:54;;;;;;;;;;;16.30;94.90;;;;;;5041688;28;19935;-75
2022/10/29 01:08:22;;;;;;;;;;;16.30;94.90;;;;;;5044206;28;19936;-74
2022/10/29 01:10:55;;;;;;;;;;;16.30;94.90;;;;;;5036431;28;20594;-74
2022/10/29 01:13:36;;;;;;;;;;;16.30;94.90;;;;;;5040577;28;19951;-75
2022/10/29 01:16:07;;;;;;;;;;;16.30;94.90;;;;;;5039091;28;19983;-75
2022/10/29 01:18:36;;;;;;;;;;;16.30;94.90;;;;;;5043440;28;19929;-74
2022/10/29 01:21:14;;;;;;;;;;;16.30;95.00;;;;;;5042743;28;20304;-74
2022/10/29 01:23:53;;;;;;;;;;;16.20;94.90;;;;;;5039909;28;19929;-75
2022/10/29 01:26:29;;;;;;;;;;;16.30;95.00;;;;;;5047931;28;19928;-75
2022/10/29 01:29:03;;;;;;;;;;;16.20;94.90;;;;;;5042039;28;19929;-75
2022/10/29 01:31:34;;;;;;;;;;;16.20;94.90;;;;;;5046375;28;19928;-74
2022/10/29 01:34:04;;;;;;;;;;;16.20;95.30;;;;;;5046499;28;20810;-75
2022/10/29 01:36:33;;;;;;;;;;;16.20;95.00;;;;;;5046867;28;19928;-75
2022/10/29 01:39:02;;;;;;;;;;;16.20;95.00;;;;;;5044460;28;19935;-76
2022/10/29 01:41:33;;;;;;;;;;;16.20;95.00;;;;;;5041765;28;19936;-75
2022/10/29 01:44:04;;;;;;;;;;;16.20;95.00;;;;;;5038516;28;19933;-74
2022/10/29 01:46:35;;;;;;;;;;;16.10;95.00;;;;;;5045419;28;19936;-74
2022/10/29 01:49:03;;;;;;;;;;;16.10;95.00;;;;;;5040057;28;20436;-74
2022/10/29 01:51:32;;;;;;;;;;;16.10;95.00;;;;;;5042501;28;19932;-75
2022/10/29 01:53:59;;;;;;;;;;;16.10;95.10;;;;;;5043441;28;19931;-74
2022/10/29 01:56:26;;;;;;;;;;;16.10;95.00;;;;;;5041030;28;19929;-74
2022/10/29 01:58:54;;;;;;;;;;;16.10;95.10;;;;;;5042409;28;20108;-75
2022/10/29 02:01:36;;;;;;;;;;;16.10;95.10;;;;;;5035041;28;19929;-75
2022/10/29 02:04:09;;;;;;;;;;;16.10;95.00;;;;;;5037779;28;19929;-74
2022/10/29 02:06:40;;;;;;;;;;;16.10;95.10;;;;;;5045546;28;19928;-74
2022/10/29 02:09:09;;;;;;;;;;;16.00;95.10;;;;;;5042828;28;19935;-74
2022/10/29 02:11:42;;;;;;;;;;;16.00;95.10;;;;;;5040362;28;19964;-75
2022/10/29 02:14:11;;;;;;;;;;;16.00;95.10;;;;;;5042442;28;19933;-74
2022/10/29 02:16:40;;;;;;;;;;;16.00;95.20;;;;;;5045395;28;20494;-75
2022/10/29 02:19:06;;;;;;;;;;;16.00;95.20;;;;;;5044546;28;19940;-74
2022/10/29 02:21:33;;;;;;;;;;;16.00;95.20;;;;;;5045932;28;19929;-74
2022/10/29 02:23:59;;;;;;;;;;;15.90;95.20;;;;;;5045815;28;19933;-74
2022/10/29 02:26:26;;;;;;;;;;;15.90;95.10;;;;;;5046140;28;19936;-74
2022/10/29 02:28:53;;;;;;;;;;;15.90;95.40;;;;;;5042964;28;19929;-75
2022/10/29 02:31:19;;;;;;;;;;;15.90;95.20;;;;;;5039103;28;20382;-75
2022/10/29 02:33:47;;;;;;;;;;;15.90;95.10;;;;;;5044829;28;19929;-74
2022/10/29 02:36:14;;;;;;;;;;;15.90;95.10;;;;;;5045523;28;19924;-74
2022/10/29 02:38:40;;;;;;;;;;;15.90;95.20;;;;;;5044791;28;20014;-74
2022/10/29 02:41:07;;;;;;;;;;;15.90;95.10;;;;;;5045027;28;19932;-74
2022/10/29 02:43:33;;;;;;;;;;;15.90;95.10;;;;;;5045412;28;19925;-75
2022/10/29 02:46:10;;;;;;;;;;;15.80;95.10;;;;;;5040805;28;20460;-75
2022/10/29 02:48:36;;;;;;;;;;;15.80;95.10;;;;;;5043583;28;20458;-74
2022/10/29 02:51:04;;;;;;;;;;;15.80;95.00;;;;;;5043638;28;19929;-74
2022/10/29 02:53:31;;;;;;;;;;;15.70;95.00;;;;;;5045262;28;19940;-75
2022/10/29 02:55:57;;;;;;;;;;;15.70;95.00;;;;;;5042404;28;19939;-74
2022/10/29 02:58:24;;;;;;;;;;;15.70;95.00;;;;;;5040525;28;19929;-75
2022/10/29 03:00:51;;;;;;;;;;;15.70;95.00;;;;;;5037692;28;19929;-75
2022/10/29 03:03:17;;;;;;;;;;;15.70;94.90;;;;;;5042462;28;20590;-74
2022/10/29 03:05:44;;;;;;;;;;;15.70;95.30;;;;;;5045033;28;19929;-75
2022/10/29 03:08:12;;;;;;;;;;;15.70;94.90;;;;;;5041372;28;19940;-75
2022/10/29 03:10:38;;;;;;;;;;;15.70;94.90;;;;;;5039664;28;20401;-74
2022/10/29 03:13:05;;;;;;;;;;;15.60;94.90;;;;;;5040582;28;20509;-75
2022/10/29 03:15:32;;;;;;;;;;;15.70;94.90;;;;;;5037588;28;19928;-74
2022/10/29 03:17:58;;;;;;;;;;;15.60;94.80;;;;;;5043652;28;19932;-75
2022/10/29 03:20:25;;;;;;;;;;;15.60;94.80;;;;;;5043630;28;19936;-75
2022/10/29 03:22:51;;;;;;;;;;;15.60;94.80;;;;;;5043246;28;19929;-74
2022/10/29 03:25:19;;;;;;;;;;;15.60;94.80;;;;;;5044534;28;19936;-74
2022/10/29 03:27:47;;;;;;;;;;;15.60;94.80;;;;;;5039953;28;19936;-75
2022/10/29 03:30:14;;;;;;;;;;;15.60;94.80;;;;;;5042896;28;20023;-75
2022/10/29 03:32:41;;;;;;;;;;;15.60;94.80;;;;;;5045911;28;20356;-74
2022/10/29 03:35:08;;;;;;;;;;;15.60;94.70;;;;;;5044140;28;19936;-75
2022/10/29 03:37:35;;;;;;;;;;;15.60;94.70;;;;;;5044307;28;19928;-75
2022/10/29 03:40:02;;;;;;;;;;;15.50;94.70;;;;;;5044548;28;19929;-74
2022/10/29 03:42:30;;;;;;;;;;;15.50;94.70;;;;;;5040132;28;19929;-74
2022/10/29 03:44:57;;;;;;;;;;;15.50;94.70;;;;;;5038612;28;20337;-75
2022/10/29 03:47:23;;;;;;;;;;;15.50;94.70;;;;;;5043940;28;19925;-75
2022/10/29 03:49:50;;;;;;;;;;;15.50;94.70;;;;;;5042494;28;19932;-74
2022/10/29 03:52:17;;;;;;;;;;;15.50;94.70;;;;;;5043512;28;19929;-74
2022/10/29 03:54:43;;;;;;;;;;;15.50;94.80;;;;;;5044770;28;19932;-74
2022/10/29 03:57:10;;;;;;;;;;;15.50;94.80;;;;;;5041253;28;19929;-74
2022/10/29 03:59:38;;;;;;;;;;;15.50;94.70;;;;;;5037342;28;19929;-74
2022/10/29 04:02:04;;;;;;;;;;;15.50;94.80;;;;;;5040376;28;19936;-74
2022/10/29 04:04:31;;;;;;;;;;;15.40;94.80;;;;;;5041849;28;19929;-74
2022/10/29 04:06:57;;;;;;;;;;;15.40;94.80;;;;;;5035611;28;19940;-75
2022/10/29 04:09:24;;;;;;;;;;;15.40;94.80;;;;;;5041535;28;19935;-75
2022/10/29 04:11:50;;;;;;;;;;;15.40;94.80;;;;;;5042262;28;19936;-74
2022/10/29 04:14:17;;;;;;;;;;;15.40;94.80;;;;;;5042074;28;19933;-74
2022/10/29 04:16:45;;;;;;;;;;;15.40;94.80;;;;;;5042058;28;19940;-75
2022/10/29 04:19:11;;;;;;;;;;;15.40;94.90;;;;;;5039860;28;20012;-74
2022/10/29 04:21:38;;;;;;;;;;;15.40;94.90;;;;;;5038920;28;19928;-74
2022/10/29 04:24:05;;;;;;;;;;;15.40;94.90;;;;;;5040286;28;19933;-75
2022/10/29 04:26:31;;;;;;;;;;;15.40;94.90;;;;;;5034807;28;20586;-75
2022/10/29 04:28:58;;;;;;;;;;;15.40;94.90;;;;;;5035208;28;19925;-75
2022/10/29 04:31:24;;;;;;;;;;;15.30;95.20;;;;;;5034645;28;19932;-75
2022/10/29 04:33:53;;;;;;;;;;;15.30;94.90;;;;;;5039254;28;19929;-74
2022/10/29 04:36:20;;;;;;;;;;;15.30;94.90;;;;;;5036863;28;19936;-75
2022/10/29 04:38:46;;;;;;;;;;;15.30;95.00;;;;;;5036542;28;19929;-74
2022/10/29 04:41:13;;;;;;;;;;;15.30;95.00;;;;;;5040991;28;19928;-74
2022/10/29 04:43:40;;;;;;;;;;;15.30;95.00;;;;;;5038739;28;19940;-74
2022/10/29 04:46:06;;;;;;;;;;;15.20;95.00;;;;;;5035498;28;19929;-74
2022/10/29 04:48:33;;;;;;;;;;;15.30;95.10;;;;;;5033952;28;19933;-75
2022/10/29 04:51:01;;;;;;;;;;;15.20;95.00;;;;;;5035043;28;21756;-75
2022/10/29 04:53:27;;;;;;;;;;;15.20;95.00;;;;;;5037636;28;19936;-74
2022/10/29 04:55:58;;;;;;;;;;;15.20;95.10;;;;;;5037478;28;19935;-74
2022/10/29 04:58:25;;;;;;;;;;;15.20;95.10;;;;;;5038842;28;19936;-74
2022/10/29 05:00:51;;;;;;;;;;;15.20;95.10;;;;;;5038353;28;19936;-75
2022/10/29 05:03:18;;;;;;;;;;;15.10;95.10;;;;;;5045623;28;19932;-75
2022/10/29 05:05:45;;;;;;;;;;;15.10;95.10;;;;;;5047544;28;19932;-75
2022/10/29 05:08:14;;;;;;;;;;;15.10;95.10;;;;;;5046225;28;19932;-74
2022/10/29 05:10:40;;;;;;;;;;;15.10;95.10;;;;;;5040572;28;20409;-74
2022/10/29 05:13:08;;;;;;;;;;;15.10;95.10;;;;;;5042879;28;19932;-74
2022/10/29 05:15:34;;;;;;;;;;;15.10;95.10;;;;;;5042413;28;19924;-74
2022/10/29 05:18:01;;;;;;;;;;;15.10;95.10;;;;;;5046624;28;19933;-75
2022/10/29 05:20:28;;;;;;;;;;;15.10;95.10;;;;;;5046886;28;19933;-75
2022/10/29 05:23:01;;;;;;;;;;;15.00;95.10;;;;;;5043099;28;19929;-75
2022/10/29 05:25:29;;;;;;;;;;;15.00;95.10;;;;;;5045992;28;20162;-75
2022/10/29 05:28:00;;;;;;;;;;;15.00;95.10;;;;;;5038410;28;19933;-74
2022/10/29 05:30:26;;;;;;;;;;;15.00;95.20;;;;;;5046179;28;20297;-74
2022/10/29 05:32:53;;;;;;;;;;;15.00;95.10;;;;;;5043261;28;19929;-74
2022/10/29 05:35:20;;;;;;;;;;;15.00;95.10;;;;;;5047695;28;19935;-75
2022/10/29 05:37:50;;;;;;;;;;;15.00;95.20;;;;;;5046954;28;19936;-74
2022/10/29 05:40:16;;;;;;;;;;;15.00;95.20;;;;;;5046242;28;19940;-75
2022/10/29 05:42:44;;;;;;;;;;;14.90;95.10;;;;;;5046947;28;19928;-72
2022/10/29 05:45:11;;;;;;;;;;;14.90;95.20;;;;;;5044708;28;19928;-71
2022/10/29 05:47:38;;;;;;;;;;;14.90;95.10;;;;;;5046016;28;19936;-71
2022/10/29 05:50:05;;;;;;;;;;;14.90;95.20;;;;;;5044942;28;19937;-71
2022/10/29 05:52:31;;;;;;;;;;;14.90;95.20;;;;;;5045700;28;19940;-71
2022/10/29 05:54:58;;;;;;;;;;;14.90;95.20;;;;;;5043798;28;19940;-77
2022/10/29 05:57:24;;;;;;;;;;;14.90;95.20;;;;;;5039976;28;20289;-76
2022/10/29 05:59:52;;;;;;;;;;;14.80;95.20;;;;;;5044077;28;19928;-75
2022/10/29 06:02:19;;;;;;;;;;;14.80;95.20;;;;;;5043760;28;19936;-75
2022/10/29 06:04:45;;;;;;;;;;;14.80;95.20;;;;;;5045694;28;19936;-75
2022/10/29 06:07:12;;;;;;;;;;;14.80;95.20;;;;;;5043455;28;19929;-76
2022/10/29 06:09:38;;;;;;;;;;;14.80;95.30;;;;;;5045986;28;19929;-76
2022/10/29 06:12:06;;;;;;;;;;;14.70;95.20;;;;;;5045188;28;20424;-76
2022/10/29 06:14:32;;;;;;;;;;;14.80;95.30;;;;;;5040888;28;19933;-76
2022/10/29 06:17:01;;;;;;;;;;;14.80;95.30;;;;;;5044474;28;19936;-75
2022/10/29 06:19:27;;;;;;;;;;;14.70;95.30;;;;;;5039970;28;19935;-76
2022/10/29 06:21:54;;;;;;;;;;;14.70;95.30;;;;;;5042644;28;19928;-75
2022/10/29 06:24:20;;;;;;;;;;;14.70;95.30;;;;;;5044548;28;19936;-76
2022/10/29 06:26:47;;;;;;;;;;;14.70;95.30;;;;;;5046128;28;19929;-76
2022/10/29 06:29:13;;;;;;;;;;;14.70;95.30;;;;;;5037586;28;19933;-76
2022/10/29 06:31:40;;;;;;;;;;;14.70;95.30;;;;;;5039921;28;19929;-76
2022/10/29 06:34:08;;;;;;;;;;;14.70;95.30;;;;;;5041083;28;20043;-76
2022/10/29 06:36:34;;;;;;;;;;;14.70;95.30;;;;;;5041479;28;19933;-75
2022/10/29 06:39:01;;;;;;;;;;;14.70;95.30;;;;;;5040287;28;19928;-75
2022/10/29 06:41:27;;;;;;;;;;;14.70;95.40;;;;;;5040369;28;19936;-76
2022/10/29 06:43:54;;;;;;;;;;;14.60;95.30;;;;;;5043737;28;19929;-76
2022/10/29 06:46:21;;;;;;;;;;;14.60;95.30;;;;;;5041573;28;20007;-76
2022/10/29 06:48:48;;;;;;;;;;;14.60;95.40;;;;;;5043398;28;19929;-76
2022/10/29 06:51:16;;;;;;;;;;;14.60;95.40;;;;;;5042238;28;19951;-76
2022/10/29 06:53:42;;;;;;;;;;;14.60;95.40;;;;;;5044057;28;19936;-76
2022/10/29 06:56:09;;;;;;;;;;;14.60;95.40;;;;;;5041150;28;19959;-76
2022/10/29 06:58:35;;;;;;;;;;;14.60;95.40;;;;;;5037181;28;19933;-75
2022/10/29 07:01:02;;;;;;;;;;;14.60;95.50;;;;;;5033620;28;19936;-76
2022/10/29 07:03:28;;;;;;;;;;;14.60;95.80;;;;;;5031270;28;19933;-76
2022/10/29 07:05:55;;;;;;;;;;;14.60;95.50;;;;;;5030420;28;19933;-76
2022/10/29 07:08:23;;;;;;;;;;;14.60;95.50;;;;;;5032651;28;19933;-76
2022/10/29 07:10:50;;;;;;;;;;;14.60;95.50;;;;;;5032155;28;19932;-76
2022/10/29 07:13:17;;;;;;;;;;;14.60;95.50;;;;;;5036957;28;19929;-77
2022/10/29 07:15:43;;;;;;;;;;;14.60;95.50;;;;;;5040211;28;19933;-76
2022/10/29 07:18:10;;;;;;;;;;;14.60;95.50;;;;;;5041909;28;19929;-76
2022/10/29 07:20:38;;;;;;;;;;;14.60;95.50;;;;;;5039121;28;19940;-76
2022/10/29 07:23:04;;;;;;;;;;;14.50;95.50;;;;;;5033613;28;19933;-76
2022/10/29 07:25:33;;;;;;;;;;;14.60;95.50;;;;;;5029710;28;20362;-76
2022/10/29 07:28:02;;;;;;;;;;;14.60;95.50;;;;;;5031565;28;19936;-76
2022/10/29 07:30:29;;;;;;;;;;;14.60;95.50;;;;;;5032228;28;19943;-77
2022/10/29 07:32:55;;;;;;;;;;;14.60;95.60;;;;;;5030043;28;19933;-76
2022/10/29 07:35:22;;;;;;;;;;;14.60;95.50;;;;;;5037029;28;19935;-77
2022/10/29 07:37:49;;;;;;;;;;;14.60;95.60;;;;;;5038956;28;19965;-77
2022/10/29 07:40:15;;;;;;;;;;;14.60;95.50;;;;;;5039040;28;19929;-76
2022/10/29 07:42:43;;;;;;;;;;;14.60;95.50;;;;;;5039599;28;20407;-76
2022/10/29 07:45:10;;;;;;;;;;;14.60;95.50;;;;;;5037263;28;19933;-76
2022/10/29 07:47:36;;;;;;;;;;;14.50;95.50;;;;;;5039166;28;19939;-76
2022/10/29 07:50:03;;;;;;;;;;;14.60;95.50;;;;;;5040886;28;19936;-76
2022/10/29 07:52:30;;;;;;;;;;;14.60;95.50;;;;;;5038013;28;19933;-77
2022/10/29 07:54:59;;;;;;;;;;;14.60;95.50;;;;;;5037163;28;19936;-76
2022/10/29 07:57:25;;;;;;;;;;;14.60;95.50;;;;;;5035747;28;19932;-77
2022/10/29 07:59:53;;;;;;;;;;;14.60;95.50;;;;;;5037963;28;19936;-76
2022/10/29 08:02:20;;;;;;;;;;;14.60;95.40;;;;;;5034621;28;19933;-77
2022/10/29 08:04:46;;;;;;;;;;;14.70;95.50;;;;;;5033367;28;19928;-76
2022/10/29 08:07:13;;;;;;;;;;;14.70;95.50;;;;;;5025567;28;20384;-77
2022/10/29 08:09:40;;;;;;;;;;;14.70;95.40;;;;;;5034941;28;19933;-77
2022/10/29 08:12:08;;;;;;;;;;;14.70;95.40;;;;;;5034913;28;19940;-77
2022/10/29 08:14:34;;;;;;;;;;;14.70;95.40;;;;;;5036375;28;20515;-77
2022/10/29 08:17:02;;;;;;;;;;;14.70;95.40;;;;;;5037127;28;19929;-77
2022/10/29 08:19:29;;;;;;;;;;;14.70;95.30;;;;;;5031950;28;19935;-77
2022/10/29 08:21:56;;;;;;;;;;;14.70;95.30;;;;;;5035626;28;19956;-77
2022/10/29 08:24:22;;;;;;;;;;;14.70;95.30;;;;;;5034712;28;19929;-77
2022/10/29 08:26:49;;;;;;;;;;;14.70;95.30;;;;;;5026781;28;19929;-76
2022/10/29 08:29:16;;;;;;;;;;;14.80;95.30;;;;;;5029474;28;19929;-77
2022/10/29 08:31:42;;;;;;;;;;;14.80;95.20;;;;;;5030429;28;19936;-76
2022/10/29 08:34:10;;;;;;;;;;;14.80;95.20;;;;;;5032147;28;19933;-77
2022/10/29 08:36:37;;;;;;;;;;;14.80;95.20;;;;;;5026560;28;20647;-77
2022/10/29 08:39:03;;;;;;;;;;;14.90;95.20;;;;;;5029521;28;20335;-76
2022/10/29 08:41:34;;;;;;;;;;;14.80;95.20;;;;;;5037684;28;19940;-77
2022/10/29 08:44:16;;;;;;;;;;;14.80;95.20;;;;;;4980259;28;1734748;-77
2022/10/29 08:46:46;;;;;;;;;;;14.90;95.20;;;;;;5038922;28;19935;-77
2022/10/29 08:49:17;;;;;;;;;;;14.90;95.20;;;;;;5034879;28;19940;-77
2022/10/29 08:51:44;;;;;;;;;;;14.90;95.10;;;;;;5039463;28;20675;-77
2022/10/29 08:54:12;;;;;;;;;;;14.90;95.10;;;;;;5039185;28;19932;-77
2022/10/29 08:56:39;;;;;;;;;;;15.00;95.10;;;;;;5038004;28;20313;-77
2022/10/29 08:59:08;;;;;;;;;;;15.00;95.10;;;;;;5031428;28;19935;-78
2022/10/29 09:01:35;;;;;;;;;;;15.00;95.10;;;;;;5026893;28;19929;-76
2022/10/29 09:04:02;;;;;;;;;;;15.00;95.10;;;;;;5031020;28;19932;-76
2022/10/29 09:06:37;;;;;;;;;;;15.10;95.10;;;;;;5028785;28;20420;-76
2022/10/29 09:09:17;;;;;;;;;;;15.10;95.10;;;;;;5033173;28;19936;-76
2022/10/29 09:11:54;;;;;;;;;;;15.10;95.00;;;;;;5036515;28;19929;-76
2022/10/29 09:14:29;;;;;;;;;;;15.10;95.00;;;;;;5035611;28;19941;-75
2022/10/29 09:16:58;;;;;;;;;;;15.20;95.00;;;;;;5034327;28;19933;-75
2022/10/29 09:19:33;;;;;;;;;;;15.20;94.90;;;;;;5036736;28;19932;-76
2022/10/29 09:22:03;;;;;;;;;;;15.20;94.90;;;;;;5030883;28;19939;-77
2022/10/29 09:24:33;;;;;;;;;;;15.30;94.90;;;;;;5040949;28;19940;-77
2022/10/29 09:27:00;;;;;;;;;;;15.30;94.80;;;;;;5038765;28;20419;-76
2022/10/29 09:29:48;;;;;;;;;;;15.30;94.70;;;;;;5038318;28;19933;-76
2022/10/29 09:32:20;;;;;;;;;;;15.40;94.70;;;;;;5041723;28;20023;-74
2022/10/29 09:34:48;;;;;;;;;;;15.40;94.60;;;;;;5036499;28;19929;-75
2022/10/29 09:37:17;;;;;;;;;;;15.40;94.60;;;;;;5035699;28;19929;-75
2022/10/29 09:39:45;;;;;;;;;;;15.50;94.50;;;;;;5030867;28;19962;-75
2022/10/29 09:42:14;;;;;;;;;;;15.50;94.40;;;;;;5028419;28;19936;-75
2022/10/29 09:44:43;;;;;;;;;;;15.60;94.30;;;;;;5029919;28;19933;-76
2022/10/29 09:47:16;;;;;;;;;;;15.70;94.20;;;;;;5044539;28;19933;-75
2022/10/29 09:49:50;;;;;;;;;;;15.70;94.10;;;;;;5043706;28;19929;-76
2022/10/29 09:52:20;;;;;;;;;;;15.80;94.00;;;;;;5035481;28;19929;-75
2022/10/29 09:54:48;;;;;;;;;;;15.90;93.90;;;;;;5045115;28;19955;-75
2022/10/29 09:57:18;;;;;;;;;;;16.00;93.80;;;;;;5036091;28;19936;-75
2022/10/29 09:59:47;;;;;;;;;;;16.10;93.70;;;;;;5044169;28;19928;-75
2022/10/29 10:02:22;;;;;;;;;;;16.10;93.60;;;;;;5040364;28;19936;-75
2022/10/29 10:04:51;;;;;;;;;;;16.20;93.60;;;;;;5040787;28;20811;-76
2022/10/29 10:07:19;;;;;;;;;;;16.30;93.50;;;;;;5038525;28;19936;-75
2022/10/29 10:09:50;;;;;;;;;;;16.40;93.40;;;;;;5044876;28;19935;-75
2022/10/29 10:12:17;;;;;;;;;;;16.50;93.40;;;;;;5044656;28;19936;-75
2022/10/29 10:14:43;;;;;;;;;;;16.50;93.30;;;;;;5043764;28;19936;-74
2022/10/29 10:17:10;;;;;;;;;;;16.60;93.50;;;;;;5042662;28;20456;-75
2022/10/29 10:19:42;;;;;;;;;;;16.70;93.10;;;;;;5042562;28;19928;-75
2022/10/29 10:22:17;;;;;;;;;;;16.70;92.90;;;;;;5042340;28;19929;-75
2022/10/29 10:24:45;;;;;;;;;;;16.80;92.80;;;;;;5038020;28;19937;-75
2022/10/29 10:27:24;;;;;;;;;;;16.90;92.70;;;;;;5032595;28;19938;-74
2022/10/29 10:30:06;;;;;;;;;;;16.90;92.60;;;;;;5034821;28;19976;-75
2022/10/29 10:32:33;;;;;;;;;;;17.00;92.50;;;;;;5033810;28;19928;-77
2022/10/29 10:34:59;;;;;;;;;;;17.10;92.40;;;;;;5035837;28;19933;-77
2022/10/29 10:37:30;;;;;;;;;;;17.10;92.30;;;;;;5041762;28;19936;-77
2022/10/29 10:40:00;;;;;;;;;;;17.20;92.20;;;;;;5040397;28;19941;-77
2022/10/29 10:42:28;;;;;;;;;;;17.20;92.10;;;;;;5041817;28;19936;-78
2022/10/29 10:44:57;;;;;;;;;;;17.30;92.10;;;;;;5041646;28;19928;-76
2022/10/29 10:47:26;;;;;;;;;;;17.40;92.00;;;;;;5039807;28;19936;-76
2022/10/29 10:49:53;;;;;;;;;;;17.40;91.90;;;;;;5038098;28;20556;-76
2022/10/29 10:52:21;;;;;;;;;;;17.50;91.80;;;;;;5043431;28;19929;-76
2022/10/29 10:54:55;;;;;;;;;;;17.60;91.70;;;;;;5044864;28;19936;-76
2022/10/29 10:57:25;;;;;;;;;;;17.60;91.60;;;;;;5040727;28;19972;-75
2022/10/29 10:59:57;;;;;;;;;;;17.70;91.60;;;;;;5038377;28;19928;-76
2022/10/29 11:02:26;;;;;;;;;;;17.70;91.50;;;;;;5038711;28;19929;-75
2022/10/29 11:04:56;;;;;;;;;;;17.80;91.40;;;;;;5035201;28;20105;-76
2022/10/29 11:07:24;;;;;;;;;;;17.80;91.30;;;;;;5040849;28;20403;-76
2022/10/29 11:09:51;;;;;;;;;;;17.90;91.10;;;;;;5044706;28;19936;-76
2022/10/29 11:12:24;;;;;;;;;;;18.00;91.10;;;;;;5041849;28;19929;-76
2022/10/29 11:14:53;;;;;;;;;;;18.00;90.90;;;;;;5038833;28;19928;-76
2022/10/29 11:17:26;;;;;;;;;;;18.10;90.90;;;;;;5043212;28;19929;-76
2022/10/29 11:19:54;;;;;;;;;;;18.10;90.70;;;;;;5043213;28;19979;-76
2022/10/29 11:22:22;;;;;;;;;;;18.20;90.70;;;;;;5043086;28;19939;-76
2022/10/29 11:24:53;;;;;;;;;;;18.20;90.60;;;;;;5036782;28;19940;-75
2022/10/29 11:27:23;;;;;;;;;;;18.20;90.60;;;;;;5041804;28;19936;-75
2022/10/29 11:29:57;;;;;;;;;;;18.30;90.40;;;;;;5038816;28;19935;-75
2022/10/29 11:32:27;;;;;;;;;;;18.30;90.40;;;;;;5036345;28;19929;-76
2022/10/29 11:34:58;;;;;;;;;;;18.40;90.30;;;;;;5038768;28;19928;-76
2022/10/29 11:37:29;;;;;;;;;;;18.40;90.30;;;;;;5034155;28;19928;-75
2022/10/29 11:39:57;;;;;;;;;;;18.40;90.20;;;;;;5028775;28;19928;-76
2022/10/29 11:42:23;;;;;;;;;;;18.50;90.20;;;;;;5031153;28;19929;-77
2022/10/29 11:44:51;;;;;;;;;;;18.60;90.10;;;;;;5035292;28;19935;-76
2022/10/29 11:47:33;;;;;;;;;;;18.60;90.10;;;;;;5028178;28;20531;-75
2022/10/29 11:50:06;;;;;;;;;;;18.70;90.00;;;;;;5031393;28;19932;-75
2022/10/29 11:52:36;;;;;;;;;;;18.70;89.80;;;;;;5040864;28;20016;-76
2022/10/29 11:55:07;;;;;;;;;;;18.70;89.60;;;;;;5040936;28;19963;-75
2022/10/29 11:57:37;;;;;;;;;;;18.80;89.60;;;;;;5041007;28;19943;-76
2022/10/29 12:00:10;;;;;;;;;;;18.80;89.50;;;;;;5040535;28;19932;-75
2022/10/29 12:02:43;;;;;;;;;;;18.90;89.50;;;;;;5038632;28;19929;-76
2022/10/29 12:05:16;;;;;;;;;;;18.90;89.30;;;;;;5040639;28;19935;-75
2022/10/29 12:07:59;;;;;;;;;;;19.00;89.20;;;;;;5037539;28;19925;-76
2022/10/29 12:10:32;;;;;;;;;;;19.00;89.00;;;;;;5040029;28;20312;-77
2022/10/29 12:13:01;;;;;;;;;;;19.10;88.90;;;;;;5040060;28;19928;-76
2022/10/29 12:15:32;;;;;;;;;;;19.10;88.90;;;;;;5035579;28;19933;-76
2022/10/29 12:18:03;;;;;;;;;;;19.20;88.80;;;;;;5039966;28;19948;-77
2022/10/29 12:20:32;;;;;;;;;;;19.20;88.40;;;;;;5032302;28;19933;-76
2022/10/29 12:23:01;;;;;;;;;;;19.30;88.30;;;;;;5035114;28;19935;-76
2022/10/29 12:25:30;;;;;;;;;;;19.30;88.30;;;;;;5038708;28;19939;-76
2022/10/29 12:28:02;;;;;;;;;;;19.40;88.30;;;;;;5035813;28;19940;-77
2022/10/29 12:30:34;;;;;;;;;;;19.40;88.10;;;;;;5038219;28;19929;-76
2022/10/29 12:33:05;;;;;;;;;;;19.50;88.10;;;;;;5041154;28;19936;-76
2022/10/29 12:35:36;;;;;;;;;;;19.50;88.00;;;;;;5039812;28;19932;-76
2022/10/29 12:38:12;;;;;;;;;;;19.50;87.80;;;;;;5034532;28;19932;-77
2022/10/29 12:40:41;;;;;;;;;;;19.60;87.70;;;;;;5035139;28;19928;-77
2022/10/29 12:43:13;;;;;;;;;;;19.60;87.80;;;;;;5032737;28;19929;-77
2022/10/29 12:45:44;;;;;;;;;;;19.70;87.80;;;;;;5038932;28;19929;-77
2022/10/29 12:48:14;;;;;;;;;;;19.70;87.90;;;;;;5042304;28;19932;-76
2022/10/29 12:50:44;;;;;;;;;;;19.70;87.80;;;;;;5040833;28;19939;-76
2022/10/29 12:53:17;;;;;;;;;;;19.70;87.80;;;;;;5039064;28;19972;-76
2022/10/29 12:55:45;;;;;;;;;;;19.80;87.70;;;;;;5038683;28;19928;-76
2022/10/29 12:58:30;;;;;;;;;;;19.80;87.60;;;;;;5039823;28;19933;-77
2022/10/29 13:00:59;;;;;;;;;;;19.90;87.50;;;;;;5037210;28;19933;-76
2022/10/29 13:03:55;;;;;;;;;;;19.90;87.50;;;;;;5041168;28;19928;-76
2022/10/29 13:06:54;;;;;;;;;;;19.90;87.50;;;;;;4974594;28;20312;-76
2022/10/29 13:09:22;;;;;;;;;;;19.90;87.40;;;;;;4989398;28;19930;-76
2022/10/29 13:11:50;;;;;;;;;;;19.90;87.30;;;;;;4994244;28;19936;-76
2022/10/29 13:14:22;;;;;;;;;;;20.00;87.20;;;;;;5014830;28;19933;-76
2022/10/29 13:16:51;;;;;;;;;;;20.00;87.20;;;;;;5038653;28;19929;-77
2022/10/29 13:19:22;;;;;;;;;;;20.00;87.20;;;;;;5038906;28;19940;-77
2022/10/29 13:21:55;;;;;;;;;;;20.10;87.20;;;;;;5042319;28;19929;-77
2022/10/29 13:24:22;;;;;;;;;;;20.10;87.20;;;;;;5042133;28;19956;-76
2022/10/29 13:26:59;;;;;;;;;;;20.10;87.10;;;;;;5037222;28;19933;-77
2022/10/29 13:29:41;;;;;;;;;;;20.10;87.00;;;;;;5032231;28;19933;-77
2022/10/29 13:32:28;;;;;;;;;;;20.20;87.10;;;;;;5034808;28;19932;-76
2022/10/29 13:34:56;;;;;;;;;;;20.20;87.10;;;;;;5035802;28;20332;-77
2022/10/29 13:37:50;;;;;;;;;;;20.20;87.10;;;;;;5034645;28;19936;-77
2022/10/29 13:40:35;;;;;;;;;;;20.20;87.10;;;;;;5043742;28;19932;-77
2022/10/29 13:43:02;;;;;;;;;;;20.20;87.20;;;;;;5034792;28;19929;-76
2022/10/29 13:45:30;;;;;;;;;;;20.20;87.10;;;;;;5040456;28;19963;-77
2022/10/29 13:48:00;;;;;;;;;;;20.30;87.30;;;;;;5044785;28;19928;-77
2022/10/29 13:50:26;;;;;;;;;;;20.30;87.20;;;;;;5042290;28;19929;-77
2022/10/29 13:52:54;;;;;;;;;;;20.30;87.20;;;;;;5039957;28;19940;-77
2022/10/29 13:55:21;;;;;;;;;;;20.30;87.10;;;;;;5040844;28;19928;-77
2022/10/29 13:57:52;;;;;;;;;;;20.40;87.10;;;;;;5044038;28;19952;-75
2022/10/29 14:00:20;;;;;;;;;;;20.40;87.10;;;;;;5039948;28;19929;-76
2022/10/29 14:02:50;;;;;;;;;;;20.50;87.10;;;;;;5042480;28;20388;-77
2022/10/29 14:05:20;;;;;;;;;;;20.50;87.00;;;;;;5043251;28;19928;-76
2022/10/29 14:07:50;;;;;;;;;;;20.50;87.00;;;;;;5043200;28;19928;-76
2022/10/29 14:10:18;;;;;;;;;;;20.50;87.10;;;;;;5040875;28;20026;-77
2022/10/29 14:12:46;;;;;;;;;;;20.50;86.90;;;;;;5043982;28;20671;-77
2022/10/29 14:15:13;;;;;;;;;;;20.50;87.70;;;;;;5045580;28;19932;-76
2022/10/29 14:17:40;;;;;;;;;;;20.50;86.90;;;;;;5046468;28;20393;-77
2022/10/29 14:20:19;;;;;;;;;;;20.50;86.90;;;;;;5042405;28;19925;-77
2022/10/29 14:22:47;;;;;;;;;;;20.50;87.10;;;;;;5042854;28;19932;-77
2022/10/29 14:25:30;;;;;;;;;;;20.50;87.10;;;;;;5044892;28;19936;-76
2022/10/29 14:28:16;;;;;;;;;;;20.50;87.10;;;;;;5043377;28;19951;-76